createdAt,value
2019-01-17T00:02:27.467Z,11.20
2019-01-17T00:05:02.015Z,10.65
2019-01-17T00:07:42.038Z,10.45
2019-01-17T00:10:29.609Z,11.68
2019-01-17T00:13:18.531Z,9.85
2019-01-17T00:16:01.354Z,8.95
2019-01-17T00:18:44.172Z,10.80
2019-01-17T00:21:20.626Z,9.15
2019-01-17T00:23:51.393Z,8.45
2019-01-17T00:26:37.476Z,10.78
2019-01-17T00:29:11.700Z,10.45
2019-01-17T00:31:45.053Z,9.63
2019-01-17T00:34:18.897Z,9.83
2019-01-17T00:36:55.541Z,9.35
2019-01-17T00:39:36.311Z,11.25
2019-01-17T00:42:16.676Z,9.65
2019-01-17T00:45:07.269Z,11.08
2019-01-17T00:47:54.086Z,10.08
2019-01-17T00:50:36.790Z,10.18
2019-01-17T00:53:25.750Z,9.45
2019-01-17T00:56:03.240Z,9.93
2019-01-17T00:58:36.926Z,9.60
2019-01-17T01:01:10.490Z,9.05
2019-01-17T01:03:44.245Z,8.35
2019-01-17T01:06:30.168Z,10.53
2019-01-17T01:09:17.720Z,6.90
2019-01-17T01:12:04.166Z,9.35
2019-01-17T01:14:38.693Z,8.48
2019-01-17T01:17:15.332Z,9.75
2019-01-17T01:20:02.205Z,9.60
2019-01-17T01:22:46.859Z,11.55
2019-01-17T01:25:21.245Z,11.05
2019-01-17T01:27:52.143Z,10.68
2019-01-17T01:30:23.102Z,11.53
2019-01-17T01:32:53.957Z,10.75
2019-01-17T01:35:24.598Z,15.95
2019-01-17T01:38:01.351Z,14.33
2019-01-17T01:40:37.722Z,14.55
2019-01-17T01:43:08.456Z,11.15
2019-01-17T01:45:42.063Z,12.73
2019-01-17T01:48:13.406Z,12.55
2019-01-17T01:50:46.657Z,12.05
2019-01-17T01:53:15.903Z,11.85
2019-01-17T01:55:45.607Z,13.03
2019-01-17T01:58:15.105Z,12.28
2019-01-17T02:00:44.536Z,10.28
2019-01-17T02:03:13.999Z,11.40
2019-01-17T02:05:43.196Z,13.55
2019-01-17T02:08:12.933Z,12.90
2019-01-17T02:10:42.411Z,15.13
2019-01-17T02:13:11.716Z,12.98
2019-01-17T02:15:41.781Z,10.98
2019-01-17T02:18:12.003Z,9.58
2019-01-17T02:20:41.177Z,10.78
2019-01-17T02:23:10.702Z,13.43
2019-01-17T02:25:40.009Z,15.00
2019-01-17T02:28:09.212Z,12.98
2019-01-17T02:30:38.876Z,11.85
2019-01-17T02:33:08.023Z,11.70
2019-01-17T02:35:37.447Z,12.80
2019-01-17T02:38:06.843Z,13.83
2019-01-17T02:40:36.022Z,11.73
2019-01-17T02:43:05.266Z,14.40
2019-01-17T02:45:36.042Z,13.70
2019-01-17T02:48:05.731Z,12.20
2019-01-17T02:50:35.516Z,11.28
2019-01-17T02:53:05.132Z,13.90
2019-01-17T02:55:34.569Z,8.60
2019-01-17T02:58:04.299Z,11.78
2019-01-17T03:00:33.540Z,10.72
2019-01-17T03:03:03.033Z,11.15
2019-01-17T03:05:32.477Z,13.62
2019-01-17T03:08:02.985Z,15.40
2019-01-17T03:10:32.479Z,11.60
2019-01-17T03:13:02.894Z,14.50
2019-01-17T03:15:32.508Z,14.13
2019-01-17T03:18:02.422Z,11.28
2019-01-17T03:20:31.750Z,13.65
2019-01-17T03:23:00.899Z,15.65
2019-01-17T03:25:30.212Z,10.48
2019-01-17T03:27:59.544Z,13.05
2019-01-17T03:30:28.852Z,13.58
2019-01-17T03:32:58.086Z,9.85
2019-01-17T03:35:27.410Z,11.45
2019-01-17T03:37:57.116Z,12.50
2019-01-17T03:40:26.420Z,10.45
2019-01-17T03:42:55.839Z,14.40
2019-01-17T03:45:25.378Z,10.10
2019-01-17T03:47:54.220Z,12.82
2019-01-17T03:50:23.009Z,12.35
2019-01-17T03:52:51.681Z,10.55
2019-01-17T03:55:21.521Z,12.00
2019-01-17T03:57:50.781Z,11.03
2019-01-17T04:00:20.458Z,11.48
2019-01-17T04:02:49.813Z,10.88
2019-01-17T04:05:20.209Z,15.10
2019-01-17T04:07:49.502Z,7.72
2019-01-17T04:10:18.886Z,8.35
2019-01-17T04:12:48.100Z,9.68
2019-01-17T04:15:17.288Z,9.98
2019-01-17T04:17:46.846Z,8.90
2019-01-17T04:20:16.660Z,8.90
2019-01-17T04:22:46.313Z,10.35
2019-01-17T04:25:17.745Z,11.85
2019-01-17T04:27:47.253Z,11.15
2019-01-17T04:30:18.600Z,11.00
2019-01-17T04:32:48.482Z,10.55
2019-01-17T04:35:17.622Z,8.90
2019-01-17T04:37:48.003Z,9.85
2019-01-17T04:40:17.038Z,9.35
2019-01-17T04:42:46.506Z,11.73
2019-01-17T04:45:16.221Z,11.05
2019-01-17T04:47:45.574Z,10.98
2019-01-17T04:50:15.516Z,10.78
2019-01-17T04:52:44.777Z,10.55
2019-01-17T04:55:14.701Z,8.30
2019-01-17T04:57:43.806Z,10.80
2019-01-17T05:00:18.435Z,9.10
2019-01-17T05:02:47.522Z,9.53
2019-01-17T05:05:17.018Z,11.65
2019-01-17T05:07:46.394Z,10.78
2019-01-17T05:10:16.856Z,11.83
2019-01-17T05:12:46.412Z,10.20
2019-01-17T05:15:15.807Z,8.23
2019-01-17T05:17:45.578Z,8.85
2019-01-17T05:20:16.127Z,9.90
2019-01-17T05:22:45.523Z,9.20
2019-01-17T05:25:15.716Z,7.83
2019-01-17T05:27:44.939Z,9.15
2019-01-17T05:30:16.264Z,9.63
2019-01-17T05:32:45.587Z,9.20
2019-01-17T05:35:14.991Z,6.25
2019-01-17T05:37:44.472Z,6.83
2019-01-17T05:40:16.844Z,8.85
2019-01-17T05:42:46.458Z,6.03
2019-01-17T05:45:16.377Z,7.67
2019-01-17T05:47:45.976Z,6.97
2019-01-17T05:50:17.153Z,6.78
2019-01-17T05:52:46.567Z,7.22
2019-01-17T05:55:20.009Z,5.72
2019-01-17T05:57:47.956Z,5.37
2019-01-17T06:00:18.348Z,6.72
2019-01-17T06:02:47.325Z,5.92
2019-01-17T06:05:16.986Z,5.65
2019-01-17T06:07:45.977Z,4.92
2019-01-17T06:10:14.929Z,5.25
2019-01-17T06:12:44.829Z,6.72
2019-01-17T06:15:18.159Z,4.80
2019-01-17T06:17:48.155Z,4.62
2019-01-17T06:20:17.844Z,4.45
2019-01-17T06:22:47.304Z,5.40
2019-01-17T06:25:17.067Z,4.33
2019-01-17T06:27:46.576Z,4.90
2019-01-17T06:30:16.547Z,4.40
2019-01-17T06:32:45.848Z,3.83
2019-01-17T06:35:14.892Z,3.20
2019-01-17T06:37:44.871Z,3.72
2019-01-17T06:40:20.250Z,2.90
2019-01-17T06:42:49.665Z,3.67
2019-01-17T06:45:18.511Z,3.12
2019-01-17T06:47:47.424Z,3.30
2019-01-17T06:50:16.201Z,2.92
2019-01-17T06:52:45.811Z,3.45
2019-01-17T06:55:15.224Z,4.28
2019-01-17T06:57:44.729Z,3.02
2019-01-17T07:00:16.633Z,2.58
2019-01-17T07:02:46.467Z,2.75
2019-01-17T07:05:16.257Z,2.85
2019-01-17T07:07:46.579Z,2.60
2019-01-17T07:10:17.717Z,2.90
2019-01-17T07:12:47.386Z,3.10
2019-01-17T07:15:16.794Z,2.85
2019-01-17T07:17:46.436Z,2.55
2019-01-17T07:20:16.802Z,1.98
2019-01-17T07:22:46.997Z,2.75
2019-01-17T07:25:16.572Z,2.55
2019-01-17T07:27:45.722Z,2.75
2019-01-17T07:30:19.604Z,2.70
2019-01-17T07:32:48.903Z,2.80
2019-01-17T07:35:17.883Z,2.42
2019-01-17T07:37:46.643Z,2.92
2019-01-17T07:40:16.109Z,2.60
2019-01-17T07:42:45.773Z,2.70
2019-01-17T07:45:17.679Z,2.20
2019-01-17T07:47:48.444Z,2.75
2019-01-17T07:50:18.216Z,3.12
2019-01-17T07:52:47.763Z,2.52
2019-01-17T07:55:17.365Z,2.15
2019-01-17T07:57:46.947Z,2.77
2019-01-17T08:00:21.639Z,2.27
2019-01-17T08:02:51.376Z,2.70
2019-01-17T08:05:21.716Z,2.33
2019-01-17T08:07:51.419Z,2.62
2019-01-17T08:10:21.348Z,2.20
2019-01-17T08:12:50.323Z,2.42
2019-01-17T08:15:20.100Z,2.20
2019-01-17T08:17:49.735Z,2.20
2019-01-17T08:20:21.223Z,2.30
2019-01-17T08:22:49.959Z,1.85
2019-01-17T08:25:20.579Z,2.25
2019-01-17T08:27:58.058Z,2.52
2019-01-17T08:30:27.878Z,2.35
2019-01-17T08:32:57.127Z,2.52
2019-01-17T08:35:27.453Z,2.50
2019-01-17T08:37:56.963Z,1.98
2019-01-17T08:40:28.117Z,1.90
2019-01-17T08:42:57.567Z,3.00
2019-01-17T08:45:26.939Z,2.17
2019-01-17T08:47:56.692Z,2.60
2019-01-17T08:50:25.935Z,3.00
2019-01-17T08:52:56.160Z,2.60
2019-01-17T08:55:25.617Z,2.55
2019-01-17T08:57:54.999Z,2.30
2019-01-17T09:00:25.723Z,2.87
2019-01-17T09:02:55.168Z,2.55
2019-01-17T09:05:24.712Z,2.95
2019-01-17T09:07:53.760Z,3.47
2019-01-17T09:10:25.614Z,2.65
2019-01-17T09:12:55.018Z,2.40
2019-01-17T09:15:27.298Z,2.55
2019-01-17T09:17:57.119Z,3.00
2019-01-17T09:20:26.214Z,2.65
2019-01-17T09:22:55.478Z,3.10
2019-01-17T09:25:24.791Z,2.65
2019-01-17T09:27:54.578Z,2.98
2019-01-17T09:30:24.010Z,3.00
2019-01-17T09:32:53.411Z,2.55
2019-01-17T09:35:23.228Z,2.95
2019-01-17T09:37:52.719Z,2.95
2019-01-17T09:40:22.847Z,2.70
2019-01-17T09:42:52.741Z,3.35
2019-01-17T09:45:22.271Z,2.12
2019-01-17T09:47:52.470Z,2.85
2019-01-17T09:50:23.652Z,2.65
2019-01-17T09:52:53.006Z,3.62
2019-01-17T09:55:22.634Z,2.98
2019-01-17T09:57:53.652Z,2.85
2019-01-17T10:00:25.626Z,2.50
2019-01-17T10:02:55.189Z,3.35
2019-01-17T10:05:24.453Z,3.20
2019-01-17T10:07:53.709Z,3.37
2019-01-17T10:10:25.446Z,2.52
2019-01-17T10:12:55.044Z,3.37
2019-01-17T10:15:30.434Z,3.10
2019-01-17T10:18:20.536Z,3.40
2019-01-17T10:21:03.360Z,3.12
2019-01-17T10:23:58.294Z,3.42
2019-01-17T10:26:33.227Z,3.37
2019-01-17T10:29:20.447Z,3.50
2019-01-17T10:32:04.408Z,2.95
2019-01-17T10:34:43.120Z,3.70
2019-01-17T10:37:30.045Z,3.70
2019-01-17T10:40:17.218Z,3.58
2019-01-17T10:42:49.414Z,4.12
2019-01-17T10:45:33.306Z,3.70
2019-01-17T10:48:20.843Z,4.22
2019-01-17T10:51:02.177Z,3.83
2019-01-17T10:53:40.253Z,3.80
2019-01-17T10:56:41.527Z,3.65
2019-01-17T10:59:16.762Z,4.10
2019-01-17T11:01:57.728Z,4.70
2019-01-17T11:04:35.876Z,4.25
2019-01-17T11:07:29.002Z,4.20
2019-01-17T11:10:04.043Z,4.10
2019-01-17T11:12:36.592Z,3.90
2019-01-17T11:15:33.246Z,4.22
2019-01-17T11:18:05.623Z,4.35
2019-01-17T11:20:51.105Z,3.00
2019-01-17T11:23:23.559Z,4.83
2019-01-17T11:26:05.391Z,4.47
2019-01-17T11:28:52.877Z,3.90
2019-01-17T11:31:42.875Z,3.80
2019-01-17T11:34:30.021Z,4.25
2019-01-17T11:37:17.334Z,3.77
2019-01-17T11:40:09.263Z,3.70
2019-01-17T11:42:43.976Z,4.42
2019-01-17T11:45:22.491Z,3.85
2019-01-17T11:47:57.671Z,4.10
2019-01-17T11:50:35.550Z,3.77
2019-01-17T11:53:07.608Z,4.40
2019-01-17T11:55:54.327Z,3.72
2019-01-17T11:58:26.272Z,4.40
2019-01-17T12:01:04.724Z,4.50
2019-01-17T12:03:42.253Z,4.12
2019-01-17T12:06:12.155Z,4.12
2019-01-17T12:08:41.301Z,4.65
2019-01-17T12:11:10.828Z,5.08
2019-01-17T12:13:41.364Z,4.78
2019-01-17T12:16:10.663Z,5.12
2019-01-17T12:18:40.016Z,5.20
2019-01-17T12:21:09.123Z,4.47
2019-01-17T12:23:38.531Z,5.10
2019-01-17T12:26:15.771Z,4.95
2019-01-17T12:28:45.903Z,3.75
2019-01-17T12:31:15.450Z,5.12
2019-01-17T12:33:45.916Z,4.70
2019-01-17T12:36:15.773Z,5.12
2019-01-17T12:38:45.208Z,5.50
2019-01-17T12:41:14.547Z,5.60
2019-01-17T12:43:44.225Z,5.60
2019-01-17T12:46:12.904Z,5.30
2019-01-17T12:48:41.651Z,4.60
2019-01-17T12:51:10.738Z,5.03
2019-01-17T12:53:39.851Z,5.42
2019-01-17T12:56:09.339Z,5.37
2019-01-17T12:58:38.588Z,5.60
2019-01-17T13:01:08.001Z,5.12
2019-01-17T13:03:37.571Z,4.50
2019-01-17T13:06:06.907Z,5.33
2019-01-17T13:08:36.274Z,5.30
2019-01-17T13:11:05.690Z,5.30
2019-01-17T13:13:35.149Z,4.87
2019-01-17T13:16:09.943Z,5.03
2019-01-17T13:18:39.565Z,4.95
2019-01-17T13:21:08.925Z,4.33
2019-01-17T13:23:37.881Z,4.45
2019-01-17T13:26:07.527Z,4.15
2019-01-17T13:28:36.720Z,4.78
2019-01-17T13:31:05.451Z,3.90
2019-01-17T13:33:35.106Z,5.55
2019-01-17T13:36:07.110Z,4.75
2019-01-17T13:38:36.423Z,4.30
2019-01-17T13:41:05.265Z,4.03
2019-01-17T13:43:34.388Z,4.70
2019-01-17T13:46:03.832Z,4.85
2019-01-17T13:48:33.330Z,4.50
2019-01-17T13:51:02.767Z,4.58
2019-01-17T13:53:32.024Z,4.70
2019-01-17T13:56:01.187Z,4.65
2019-01-17T13:58:30.588Z,5.15
2019-01-17T14:00:59.724Z,5.25
2019-01-17T14:03:28.939Z,4.33
2019-01-17T14:05:58.128Z,4.25
2019-01-17T14:08:27.780Z,5.28
2019-01-17T14:10:56.503Z,4.80
2019-01-17T14:13:25.089Z,5.00
2019-01-17T14:15:54.593Z,5.78
2019-01-17T14:18:27.877Z,4.50
2019-01-17T14:20:54.666Z,5.87
2019-01-17T14:23:23.977Z,6.12
2019-01-17T14:25:53.472Z,5.83
2019-01-17T14:28:23.183Z,5.85
2019-01-17T14:30:52.283Z,4.95
2019-01-17T14:33:21.339Z,5.95
2019-01-17T14:35:50.804Z,5.25
2019-01-17T14:38:21.543Z,6.30
2019-01-17T14:40:50.748Z,5.35
2019-01-17T14:43:20.082Z,5.37
2019-01-17T14:45:49.154Z,4.90
2019-01-17T14:48:18.274Z,5.10
2019-01-17T14:50:47.503Z,4.80
2019-01-17T14:53:16.852Z,5.53
2019-01-17T14:55:45.593Z,5.40
2019-01-17T14:58:14.834Z,6.00
2019-01-17T15:00:43.455Z,5.83
2019-01-17T15:03:13.019Z,6.45
2019-01-17T15:05:42.615Z,6.65
2019-01-17T15:08:11.753Z,6.00
2019-01-17T15:10:41.451Z,5.72
2019-01-17T15:13:10.896Z,6.37
2019-01-17T15:15:40.001Z,5.90
2019-01-17T15:18:09.380Z,7.72
2019-01-17T15:20:39.005Z,7.03
2019-01-17T15:23:08.241Z,7.15
2019-01-17T15:25:37.651Z,7.20
2019-01-17T15:28:07.159Z,8.88
2019-01-17T15:30:36.866Z,9.08
2019-01-17T15:33:06.024Z,8.30
2019-01-17T15:35:35.466Z,8.30
2019-01-17T15:38:04.359Z,9.03
2019-01-17T15:40:33.046Z,8.50
2019-01-17T15:43:01.847Z,8.03
2019-01-17T15:45:31.330Z,7.30
2019-01-17T15:48:00.594Z,8.10
2019-01-17T15:50:29.905Z,9.48
2019-01-17T15:52:59.179Z,8.80
2019-01-17T15:55:28.355Z,8.50
2019-01-17T15:57:57.460Z,7.97
2019-01-17T16:00:30.877Z,7.20
2019-01-17T16:03:00.061Z,7.35
2019-01-17T16:05:29.645Z,6.75
2019-01-17T16:07:59.296Z,7.40
2019-01-17T16:10:28.690Z,6.62
2019-01-17T16:12:57.886Z,6.60
2019-01-17T16:15:27.425Z,5.78
2019-01-17T16:17:56.589Z,6.60
2019-01-17T16:20:25.744Z,5.87
2019-01-17T16:22:54.799Z,5.90
2019-01-17T16:25:23.668Z,5.28
2019-01-17T16:27:53.180Z,5.90
2019-01-17T16:30:26.876Z,5.97
2019-01-17T16:32:56.163Z,5.47
2019-01-17T16:35:26.455Z,5.28
2019-01-17T16:37:56.737Z,5.60
2019-01-17T16:40:25.911Z,6.00
2019-01-17T16:42:55.209Z,5.62
2019-01-17T16:45:24.629Z,5.17
2019-01-17T16:47:54.018Z,5.72
2019-01-17T16:50:24.261Z,7.33
2019-01-17T16:52:53.345Z,6.80
2019-01-17T16:55:22.582Z,6.70
2019-01-17T16:57:51.833Z,6.28
2019-01-17T17:00:35.154Z,6.90
2019-01-17T17:03:04.922Z,6.28
2019-01-17T17:05:34.564Z,5.87
2019-01-17T17:08:03.243Z,5.70
2019-01-17T17:10:32.730Z,6.17
2019-01-17T17:13:01.953Z,5.75
2019-01-17T17:15:31.277Z,6.80
2019-01-17T17:18:00.574Z,7.25
2019-01-17T17:20:29.714Z,7.15
2019-01-17T17:22:59.017Z,5.78
2019-01-17T17:25:28.262Z,4.83
2019-01-17T17:27:57.614Z,6.03
2019-01-17T17:30:27.836Z,5.92
2019-01-17T17:32:57.966Z,6.72
2019-01-17T17:35:27.357Z,6.65
2019-01-17T17:37:56.835Z,6.95
2019-01-17T17:40:28.498Z,6.65
2019-01-17T17:42:59.037Z,5.47
2019-01-17T17:45:28.520Z,5.85
2019-01-17T17:47:57.112Z,6.45
2019-01-17T17:50:25.865Z,7.80
2019-01-17T17:52:54.625Z,5.53
2019-01-17T17:55:23.358Z,6.87
2019-01-17T17:57:52.123Z,6.25
2019-01-17T18:00:27.316Z,6.53
2019-01-17T18:02:56.855Z,6.50
2019-01-17T18:05:26.263Z,6.30
2019-01-17T18:07:55.673Z,6.40
2019-01-17T18:10:25.812Z,6.47
2019-01-17T18:12:55.293Z,7.55
2019-01-17T18:15:24.579Z,7.10
2019-01-17T18:17:53.777Z,6.58
2019-01-17T18:20:23.102Z,6.95
2019-01-17T18:22:52.368Z,5.72
2019-01-17T18:25:21.460Z,5.78
2019-01-17T18:27:50.846Z,6.17
2019-01-17T18:30:25.453Z,5.83
2019-01-17T18:32:54.199Z,6.10
2019-01-17T18:35:23.063Z,6.75
2019-01-17T18:37:51.867Z,6.33
2019-01-17T18:40:21.418Z,5.80
2019-01-17T18:42:50.883Z,6.30
2019-01-17T18:45:25.271Z,7.50
2019-01-17T18:47:54.575Z,6.87
2019-01-17T18:50:26.886Z,7.28
2019-01-17T18:52:56.143Z,6.05
2019-01-17T18:55:25.403Z,6.87
2019-01-17T18:57:54.854Z,6.95
2019-01-17T19:00:28.810Z,7.12
2019-01-17T19:02:58.251Z,6.58
2019-01-17T19:05:27.805Z,6.80
2019-01-17T19:07:56.876Z,6.47
2019-01-17T19:10:26.120Z,6.55
2019-01-17T19:12:55.450Z,7.50
2019-01-17T19:15:30.028Z,7.30
2019-01-17T19:17:58.700Z,6.42
2019-01-17T19:20:28.383Z,6.40
2019-01-17T19:22:57.271Z,6.17
2019-01-17T19:25:26.512Z,6.17
2019-01-17T19:27:56.411Z,7.08
2019-01-17T19:30:27.144Z,6.20
2019-01-17T19:32:56.144Z,6.30
2019-01-17T19:35:25.250Z,6.78
2019-01-17T19:37:54.332Z,7.17
2019-01-17T19:40:25.249Z,8.28
2019-01-17T19:42:54.305Z,7.35
2019-01-17T19:45:23.563Z,10.25
2019-01-17T19:47:53.296Z,6.97
2019-01-17T19:50:25.566Z,6.90
2019-01-17T19:52:54.645Z,7.85
2019-01-17T19:55:23.655Z,13.22
2019-01-17T19:57:53.665Z,8.00
2019-01-17T20:00:23.123Z,8.05
2019-01-17T20:02:51.955Z,6.37
2019-01-17T20:05:23.237Z,7.30
2019-01-17T20:07:51.977Z,7.75
2019-01-17T20:10:34.004Z,6.87
2019-01-17T20:13:03.116Z,5.90
2019-01-17T20:15:32.539Z,6.35
2019-01-17T20:18:01.959Z,7.42
2019-01-17T20:20:32.036Z,6.67
2019-01-17T20:23:01.819Z,8.28
2019-01-17T20:25:31.054Z,6.65
2019-01-17T20:28:00.329Z,7.15
2019-01-17T20:30:30.912Z,7.28
2019-01-17T20:33:00.873Z,7.90
2019-01-17T20:35:30.995Z,7.50
2019-01-17T20:38:00.076Z,6.05
2019-01-17T20:40:29.328Z,5.92
2019-01-17T20:42:58.580Z,6.42
2019-01-17T20:45:27.317Z,6.25
2019-01-17T20:47:56.049Z,5.35
2019-01-17T20:50:30.222Z,5.83
2019-01-17T20:52:59.479Z,9.53
2019-01-17T20:55:28.796Z,10.03
2019-01-17T20:57:58.389Z,6.47
2019-01-17T21:00:37.231Z,6.40
2019-01-17T21:03:08.201Z,6.10
2019-01-17T21:05:37.599Z,7.92
2019-01-17T21:08:06.830Z,6.33
2019-01-17T21:10:36.275Z,6.70
2019-01-17T21:13:05.644Z,6.75
2019-01-17T21:15:34.873Z,7.25
2019-01-17T21:18:04.364Z,6.53
2019-01-17T21:20:33.644Z,7.00
2019-01-17T21:23:03.191Z,7.00
2019-01-17T21:25:32.438Z,8.00
2019-01-17T21:28:01.636Z,8.00
2019-01-17T21:30:30.978Z,6.17
2019-01-17T21:33:06.766Z,5.62
2019-01-17T21:35:31.979Z,4.75
2019-01-17T21:38:00.753Z,4.10
2019-01-17T21:40:29.896Z,1.83
2019-01-17T21:42:59.282Z,0.70
2019-01-17T21:45:28.600Z,1.27
2019-01-17T21:47:57.782Z,1.10
2019-01-17T21:50:31.890Z,1.00
2019-01-17T21:53:02.184Z,0.90
2019-01-17T21:55:31.643Z,0.80
2019-01-17T21:58:00.970Z,0.80
2019-01-17T22:00:30.512Z,0.93
2019-01-17T22:02:59.796Z,0.87
2019-01-17T22:05:29.205Z,1.50
2019-01-17T22:07:58.519Z,0.80
2019-01-17T22:10:28.019Z,1.50
2019-01-17T22:12:57.717Z,1.20
2019-01-17T22:15:27.236Z,1.10
2019-01-17T22:17:56.122Z,0.80
2019-01-17T22:20:25.706Z,0.90
2019-01-17T22:22:54.360Z,0.90
2019-01-17T22:25:23.607Z,0.90
2019-01-17T22:27:53.611Z,0.93
2019-01-17T22:30:27.406Z,1.33
2019-01-17T22:32:56.795Z,1.20
2019-01-17T22:35:25.952Z,0.90
2019-01-17T22:37:55.678Z,0.80
2019-01-17T22:40:25.392Z,0.80
2019-01-17T22:42:54.666Z,1.10
2019-01-17T22:45:29.151Z,0.70
2019-01-17T22:47:58.591Z,0.40
2019-01-17T22:50:29.080Z,0.70
2019-01-17T22:52:59.451Z,0.60
2019-01-17T22:55:29.672Z,0.70
2019-01-17T22:57:58.355Z,0.60
2019-01-17T23:00:52.977Z,0.53
2019-01-17T23:03:24.992Z,0.87
2019-01-17T23:05:54.398Z,0.60
2019-01-17T23:08:23.715Z,0.50
2019-01-17T23:10:53.065Z,0.73
2019-01-17T23:13:22.743Z,0.60
2019-01-17T23:15:52.495Z,0.70
2019-01-17T23:18:21.789Z,0.90
2019-01-17T23:20:50.987Z,1.10
2019-01-17T23:23:20.268Z,1.10
2019-01-17T23:25:49.377Z,0.63
2019-01-17T23:28:18.804Z,0.50
2019-01-17T23:30:47.919Z,1.07
2019-01-17T23:33:16.945Z,0.80
2019-01-17T23:35:46.468Z,1.20
2019-01-17T23:38:15.801Z,0.90
2019-01-17T23:40:44.452Z,1.50
2019-01-17T23:43:13.077Z,0.87
2019-01-17T23:45:41.753Z,1.57
2019-01-17T23:48:10.516Z,2.13
2019-01-17T23:50:39.179Z,1.70
2019-01-17T23:53:08.524Z,2.73
2019-01-17T23:55:39.376Z,2.33
2019-01-17T23:58:08.845Z,1.57
